sensor_id;sensor_type;location;lat;lon;timestamp;pressure;altitude;pressure_sealevel;temperature;humidity
49367;BME280;35245;52.026;8.540;2022-11-20T00:01:32;-14100.28;;;-145.42;100.00
49367;BME280;35245;52.026;8.540;2022-11-20T00:03:59;-14100.28;;;-145.42;100.00
49367;BME280;35245;52.026;8.540;2022-11-20T00:06:27;-14100.28;;;-145.42;100.00
49367;BME280;35245;52.026;8.540;2022-11-20T00:08:57;-14100.28;;;-145.42;100.00
49367;BME280;35245;52.026;8.540;2022-11-20T00:11:27;-14100.28;;;-145.42;100.00
49367;BME280;35245;52.026;8.540;2022-11-20T00:13:57;-14100.28;;;-145.42;100.00
49367;BME280;35245;52.026;8.540;2022-11-20T00:16:27;-14100.28;;;-145.42;100.00
49367;BME280;35245;52.026;8.540;2022-11-20T00:18:55;-14100.28;;;-145.42;100.00
49367;BME280;35245;52.026;8.540;2022-11-20T00:21:24;-14100.28;;;-145.42;100.00
49367;BME280;35245;52.026;8.540;2022-11-20T00:23:54;-14100.28;;;-145.42;100.00
49367;BME280;35245;52.026;8.540;2022-11-20T00:26:24;-14100.28;;;-145.42;100.00
49367;BME280;35245;52.026;8.540;2022-11-20T00:28:55;-14100.28;;;-145.42;100.00
49367;BME280;35245;52.026;8.540;2022-11-20T00:31:23;-14100.28;;;-145.42;100.00
49367;BME280;35245;52.026;8.540;2022-11-20T00:33:52;-14100.28;;;-145.42;100.00
49367;BME280;35245;52.026;8.540;2022-11-20T00:36:22;-14100.28;;;-145.42;100.00
49367;BME280;35245;52.026;8.540;2022-11-20T00:38:52;-14100.28;;;-145.42;100.00
49367;BME280;35245;52.026;8.540;2022-11-20T00:41:19;-14100.28;;;-145.42;100.00
49367;BME280;35245;52.026;8.540;2022-11-20T00:43:47;-14100.28;;;-145.42;100.00
49367;BME280;35245;52.026;8.540;2022-11-20T00:46:17;-14100.28;;;-145.42;100.00
49367;BME280;35245;52.026;8.540;2022-11-20T00:48:45;-14100.28;;;-145.42;100.00
49367;BME280;35245;52.026;8.540;2022-11-20T00:51:15;-14100.28;;;-145.42;100.00
49367;BME280;35245;52.026;8.540;2022-11-20T00:53:44;-14100.28;;;-145.42;100.00
49367;BME280;35245;52.026;8.540;2022-11-20T00:56:14;-14100.28;;;-145.42;100.00
49367;BME280;35245;52.026;8.540;2022-11-20T00:58:44;-14100.28;;;-145.42;100.00
49367;BME280;35245;52.026;8.540;2022-11-20T01:01:14;-14100.28;;;-145.42;100.00
49367;BME280;35245;52.026;8.540;2022-11-20T01:03:43;-14100.28;;;-145.42;100.00
49367;BME280;35245;52.026;8.540;2022-11-20T01:06:13;-14100.28;;;-145.42;100.00
49367;BME280;35245;52.026;8.540;2022-11-20T01:08:41;-14100.28;;;-145.42;100.00
49367;BME280;35245;52.026;8.540;2022-11-20T01:11:12;-14100.28;;;-145.42;100.00
49367;BME280;35245;52.026;8.540;2022-11-20T01:13:40;-14100.28;;;-145.42;100.00
49367;BME280;35245;52.026;8.540;2022-11-20T01:16:11;-14100.28;;;-145.42;100.00
49367;BME280;35245;52.026;8.540;2022-11-20T01:18:42;-14100.28;;;-145.42;100.00
49367;BME280;35245;52.026;8.540;2022-11-20T01:21:11;-14100.28;;;-145.42;100.00
49367;BME280;35245;52.026;8.540;2022-11-20T01:23:41;-14100.28;;;-145.42;100.00
49367;BME280;35245;52.026;8.540;2022-11-20T01:26:13;-14100.28;;;-145.42;100.00
49367;BME280;35245;52.026;8.540;2022-11-20T01:28:41;-14100.28;;;-145.42;100.00
49367;BME280;35245;52.026;8.540;2022-11-20T01:31:13;-14100.28;;;-145.42;100.00
49367;BME280;35245;52.026;8.540;2022-11-20T01:33:42;-14100.28;;;-145.42;100.00
49367;BME280;35245;52.026;8.540;2022-11-20T01:36:10;-14100.28;;;-145.42;100.00
49367;BME280;35245;52.026;8.540;2022-11-20T01:38:38;-14100.28;;;-145.42;100.00
49367;BME280;35245;52.026;8.540;2022-11-20T01:41:07;-14100.28;;;-145.42;100.00
49367;BME280;35245;52.026;8.540;2022-11-20T01:43:36;-14100.28;;;-145.42;100.00
49367;BME280;35245;52.026;8.540;2022-11-20T01:46:21;-14100.28;;;-145.42;100.00
49367;BME280;35245;52.026;8.540;2022-11-20T01:48:54;-14100.28;;;-145.42;100.00
49367;BME280;35245;52.026;8.540;2022-11-20T01:51:31;-14100.28;;;-145.42;100.00
49367;BME280;35245;52.026;8.540;2022-11-20T01:54:06;-14100.28;;;-145.42;100.00
49367;BME280;35245;52.026;8.540;2022-11-20T01:56:40;-14100.28;;;-145.42;100.00
49367;BME280;35245;52.026;8.540;2022-11-20T01:59:11;-14100.28;;;-145.42;100.00
49367;BME280;35245;52.026;8.540;2022-11-20T02:01:40;-14100.28;;;-145.42;100.00
49367;BME280;35245;52.026;8.540;2022-11-20T02:04:08;-14100.28;;;-145.42;100.00
49367;BME280;35245;52.026;8.540;2022-11-20T02:06:40;-14100.28;;;-145.42;100.00
49367;BME280;35245;52.026;8.540;2022-11-20T02:09:09;-14100.28;;;-145.42;100.00
49367;BME280;35245;52.026;8.540;2022-11-20T02:11:37;-14100.28;;;-145.42;100.00
49367;BME280;35245;52.026;8.540;2022-11-20T02:14:05;-14100.28;;;-145.42;100.00
49367;BME280;35245;52.026;8.540;2022-11-20T02:16:37;-14100.28;;;-145.42;100.00
49367;BME280;35245;52.026;8.540;2022-11-20T02:19:12;-14100.28;;;-145.42;100.00
49367;BME280;35245;52.026;8.540;2022-11-20T02:21:47;-14100.28;;;-145.42;100.00
49367;BME280;35245;52.026;8.540;2022-11-20T02:24:18;-14100.28;;;-145.42;100.00
49367;BME280;35245;52.026;8.540;2022-11-20T02:26:51;-14100.28;;;-145.42;100.00
49367;BME280;35245;52.026;8.540;2022-11-20T02:29:25;-14100.28;;;-145.42;100.00
49367;BME280;35245;52.026;8.540;2022-11-20T02:31:55;-14100.28;;;-145.42;100.00
49367;BME280;35245;52.026;8.540;2022-11-20T02:34:23;-14100.28;;;-145.42;100.00
49367;BME280;35245;52.026;8.540;2022-11-20T02:36:52;-14100.28;;;-145.42;100.00
49367;BME280;35245;52.026;8.540;2022-11-20T02:39:22;-14100.28;;;-145.42;100.00
49367;BME280;35245;52.026;8.540;2022-11-20T02:41:52;-14100.28;;;-145.42;100.00
49367;BME280;35245;52.026;8.540;2022-11-20T02:44:19;-14100.28;;;-145.42;100.00
49367;BME280;35245;52.026;8.540;2022-11-20T02:46:46;-14100.28;;;-145.42;100.00
49367;BME280;35245;52.026;8.540;2022-11-20T02:49:14;-14100.28;;;-145.42;100.00
49367;BME280;35245;52.026;8.540;2022-11-20T02:51:42;-14100.28;;;-145.42;100.00
49367;BME280;35245;52.026;8.540;2022-11-20T02:54:09;-14100.28;;;-145.42;100.00
49367;BME280;35245;52.026;8.540;2022-11-20T02:56:39;-14100.28;;;-145.42;100.00
49367;BME280;35245;52.026;8.540;2022-11-20T02:59:07;-14100.28;;;-145.42;100.00
49367;BME280;35245;52.026;8.540;2022-11-20T03:01:34;-14100.28;;;-145.42;100.00
49367;BME280;35245;52.026;8.540;2022-11-20T03:04:02;-14100.28;;;-145.42;100.00
49367;BME280;35245;52.026;8.540;2022-11-20T03:06:29;-14100.28;;;-145.42;100.00
49367;BME280;35245;52.026;8.540;2022-11-20T03:08:56;-14100.28;;;-145.42;100.00
49367;BME280;35245;52.026;8.540;2022-11-20T03:11:24;-14100.28;;;-145.42;100.00
49367;BME280;35245;52.026;8.540;2022-11-20T03:13:53;-14100.28;;;-145.42;100.00
49367;BME280;35245;52.026;8.540;2022-11-20T03:16:22;-14100.28;;;-145.42;100.00
49367;BME280;35245;52.026;8.540;2022-11-20T03:18:51;-14100.28;;;-145.42;100.00
49367;BME280;35245;52.026;8.540;2022-11-20T03:21:19;-14100.28;;;-145.42;100.00
49367;BME280;35245;52.026;8.540;2022-11-20T03:23:46;-14100.28;;;-145.42;100.00
49367;BME280;35245;52.026;8.540;2022-11-20T03:26:16;-14100.28;;;-145.42;100.00
49367;BME280;35245;52.026;8.540;2022-11-20T03:28:49;-14100.28;;;-145.42;100.00
49367;BME280;35245;52.026;8.540;2022-11-20T03:31:21;-14100.28;;;-145.42;100.00
49367;BME280;35245;52.026;8.540;2022-11-20T03:33:48;-14100.28;;;-145.42;100.00
49367;BME280;35245;52.026;8.540;2022-11-20T03:36:18;-14100.28;;;-145.42;100.00
49367;BME280;35245;52.026;8.540;2022-11-20T03:38:46;-14100.28;;;-145.42;100.00
49367;BME280;35245;52.026;8.540;2022-11-20T03:41:17;-14100.28;;;-145.42;100.00
49367;BME280;35245;52.026;8.540;2022-11-20T03:43:48;-14100.28;;;-145.42;100.00
49367;BME280;35245;52.026;8.540;2022-11-20T03:46:17;-14100.28;;;-145.42;100.00
49367;BME280;35245;52.026;8.540;2022-11-20T03:48:44;-14100.28;;;-145.42;100.00
49367;BME280;35245;52.026;8.540;2022-11-20T03:51:14;-14100.28;;;-145.42;100.00
49367;BME280;35245;52.026;8.540;2022-11-20T03:53:44;-14100.28;;;-145.42;100.00
49367;BME280;35245;52.026;8.540;2022-11-20T03:56:13;-14100.28;;;-145.42;100.00
49367;BME280;35245;52.026;8.540;2022-11-20T03:58:41;-14100.28;;;-145.42;100.00
49367;BME280;35245;52.026;8.540;2022-11-20T04:01:12;-14100.28;;;-145.42;100.00
49367;BME280;35245;52.026;8.540;2022-11-20T04:03:42;-14100.28;;;-145.42;100.00
49367;BME280;35245;52.026;8.540;2022-11-20T04:06:13;-14100.28;;;-145.42;100.00
49367;BME280;35245;52.026;8.540;2022-11-20T04:08:41;-14100.28;;;-145.42;100.00
49367;BME280;35245;52.026;8.540;2022-11-20T04:11:13;-14100.28;;;-145.42;100.00
49367;BME280;35245;52.026;8.540;2022-11-20T04:13:42;-14100.28;;;-145.42;100.00
49367;BME280;35245;52.026;8.540;2022-11-20T04:16:12;-14100.28;;;-145.42;100.00
49367;BME280;35245;52.026;8.540;2022-11-20T04:18:41;-14100.28;;;-145.42;100.00
49367;BME280;35245;52.026;8.540;2022-11-20T04:21:09;-14100.28;;;-145.42;100.00
49367;BME280;35245;52.026;8.540;2022-11-20T04:23:37;-14100.28;;;-145.42;100.00
49367;BME280;35245;52.026;8.540;2022-11-20T04:26:07;-14100.28;;;-145.42;100.00
49367;BME280;35245;52.026;8.540;2022-11-20T04:28:35;-14100.28;;;-145.42;100.00
49367;BME280;35245;52.026;8.540;2022-11-20T04:31:04;-14100.28;;;-145.42;100.00
49367;BME280;35245;52.026;8.540;2022-11-20T04:33:32;-14100.28;;;-145.42;100.00
49367;BME280;35245;52.026;8.540;2022-11-20T04:36:07;-14100.28;;;-145.42;100.00
49367;BME280;35245;52.026;8.540;2022-11-20T04:38:36;-14100.28;;;-145.42;100.00
49367;BME280;35245;52.026;8.540;2022-11-20T04:41:07;-14100.28;;;-145.42;100.00
49367;BME280;35245;52.026;8.540;2022-11-20T04:43:34;-14100.28;;;-145.42;100.00
49367;BME280;35245;52.026;8.540;2022-11-20T04:46:02;-14100.28;;;-145.42;100.00
49367;BME280;35245;52.026;8.540;2022-11-20T04:48:29;-14100.28;;;-145.42;100.00
49367;BME280;35245;52.026;8.540;2022-11-20T04:50:57;-14100.28;;;-145.42;100.00
49367;BME280;35245;52.026;8.540;2022-11-20T04:53:26;-14100.28;;;-145.42;100.00
49367;BME280;35245;52.026;8.540;2022-11-20T04:55:59;-14100.28;;;-145.42;100.00
49367;BME280;35245;52.026;8.540;2022-11-20T04:58:27;-14100.28;;;-145.42;100.00
49367;BME280;35245;52.026;8.540;2022-11-20T05:01:01;-14100.28;;;-145.42;100.00
49367;BME280;35245;52.026;8.540;2022-11-20T05:03:30;-14100.28;;;-145.42;100.00
49367;BME280;35245;52.026;8.540;2022-11-20T05:06:00;-14100.28;;;-145.42;100.00
49367;BME280;35245;52.026;8.540;2022-11-20T05:08:30;-14100.28;;;-145.42;100.00
49367;BME280;35245;52.026;8.540;2022-11-20T05:11:01;-14100.28;;;-145.42;100.00
49367;BME280;35245;52.026;8.540;2022-11-20T05:13:28;-14100.28;;;-145.42;100.00
49367;BME280;35245;52.026;8.540;2022-11-20T05:15:55;-14100.28;;;-145.42;100.00
49367;BME280;35245;52.026;8.540;2022-11-20T05:18:27;-14100.28;;;-145.42;100.00
49367;BME280;35245;52.026;8.540;2022-11-20T05:20:55;-14100.28;;;-145.42;100.00
49367;BME280;35245;52.026;8.540;2022-11-20T05:23:23;-14100.28;;;-145.42;100.00
49367;BME280;35245;52.026;8.540;2022-11-20T05:25:54;-14100.28;;;-145.42;100.00
49367;BME280;35245;52.026;8.540;2022-11-20T05:28:22;-14100.28;;;-145.42;100.00
49367;BME280;35245;52.026;8.540;2022-11-20T05:30:50;-14100.28;;;-145.42;100.00
49367;BME280;35245;52.026;8.540;2022-11-20T05:33:18;-14100.28;;;-145.42;100.00
49367;BME280;35245;52.026;8.540;2022-11-20T05:35:45;-14100.28;;;-145.42;100.00
49367;BME280;35245;52.026;8.540;2022-11-20T05:38:13;-14100.28;;;-145.42;100.00
49367;BME280;35245;52.026;8.540;2022-11-20T05:40:41;-14100.28;;;-145.42;100.00
49367;BME280;35245;52.026;8.540;2022-11-20T05:43:09;-14100.28;;;-145.42;100.00
49367;BME280;35245;52.026;8.540;2022-11-20T05:45:36;-14100.28;;;-145.42;100.00
49367;BME280;35245;52.026;8.540;2022-11-20T05:48:04;-14100.28;;;-145.42;100.00
49367;BME280;35245;52.026;8.540;2022-11-20T05:50:31;-14100.28;;;-145.42;100.00
49367;BME280;35245;52.026;8.540;2022-11-20T05:52:59;-14100.28;;;-145.42;100.00
49367;BME280;35245;52.026;8.540;2022-11-20T05:55:27;-14100.28;;;-145.42;100.00
49367;BME280;35245;52.026;8.540;2022-11-20T05:57:54;-14100.28;;;-145.42;100.00
49367;BME280;35245;52.026;8.540;2022-11-20T06:00:23;-14100.28;;;-145.42;100.00
49367;BME280;35245;52.026;8.540;2022-11-20T06:02:50;-14100.28;;;-145.42;100.00
49367;BME280;35245;52.026;8.540;2022-11-20T06:05:17;-14100.28;;;-145.42;100.00
49367;BME280;35245;52.026;8.540;2022-11-20T06:07:44;-14100.28;;;-145.42;100.00
49367;BME280;35245;52.026;8.540;2022-11-20T06:10:12;-14100.28;;;-145.42;100.00
49367;BME280;35245;52.026;8.540;2022-11-20T06:12:39;-14100.28;;;-145.42;100.00
49367;BME280;35245;52.026;8.540;2022-11-20T06:15:07;-14100.28;;;-145.42;100.00
49367;BME280;35245;52.026;8.540;2022-11-20T06:17:36;-14100.28;;;-145.42;100.00
49367;BME280;35245;52.026;8.540;2022-11-20T06:20:04;-14100.28;;;-145.42;100.00
49367;BME280;35245;52.026;8.540;2022-11-20T06:22:32;-14100.28;;;-145.42;100.00
49367;BME280;35245;52.026;8.540;2022-11-20T06:24:59;-14100.28;;;-145.42;100.00
49367;BME280;35245;52.026;8.540;2022-11-20T06:27:27;-14100.28;;;-145.42;100.00
49367;BME280;35245;52.026;8.540;2022-11-20T06:29:54;-14100.28;;;-145.42;100.00
49367;BME280;35245;52.026;8.540;2022-11-20T06:32:21;-14100.28;;;-145.42;100.00
49367;BME280;35245;52.026;8.540;2022-11-20T06:34:50;-14100.28;;;-145.42;100.00
49367;BME280;35245;52.026;8.540;2022-11-20T06:37:17;-14100.28;;;-145.42;100.00
49367;BME280;35245;52.026;8.540;2022-11-20T06:39:45;-14100.28;;;-145.42;100.00
49367;BME280;35245;52.026;8.540;2022-11-20T06:42:12;-14100.28;;;-145.42;100.00
49367;BME280;35245;52.026;8.540;2022-11-20T06:44:39;-14100.28;;;-145.42;100.00
49367;BME280;35245;52.026;8.540;2022-11-20T06:47:06;-14100.28;;;-145.42;100.00
49367;BME280;35245;52.026;8.540;2022-11-20T06:49:33;-14100.28;;;-145.42;100.00
49367;BME280;35245;52.026;8.540;2022-11-20T06:52:04;-14100.28;;;-145.42;100.00
49367;BME280;35245;52.026;8.540;2022-11-20T06:54:31;-14100.28;;;-145.42;100.00
49367;BME280;35245;52.026;8.540;2022-11-20T06:56:58;-14100.28;;;-145.42;100.00
49367;BME280;35245;52.026;8.540;2022-11-20T06:59:26;-14100.28;;;-145.42;100.00
49367;BME280;35245;52.026;8.540;2022-11-20T07:01:53;-14100.28;;;-145.42;100.00
49367;BME280;35245;52.026;8.540;2022-11-20T07:04:20;-14100.28;;;-145.42;100.00
49367;BME280;35245;52.026;8.540;2022-11-20T07:06:48;-14100.28;;;-145.42;100.00
49367;BME280;35245;52.026;8.540;2022-11-20T07:09:16;-14100.28;;;-145.42;100.00
49367;BME280;35245;52.026;8.540;2022-11-20T07:11:43;-14100.28;;;-145.42;100.00
49367;BME280;35245;52.026;8.540;2022-11-20T07:14:10;-14100.28;;;-145.42;100.00
49367;BME280;35245;52.026;8.540;2022-11-20T07:16:38;-14100.28;;;-145.42;100.00
49367;BME280;35245;52.026;8.540;2022-11-20T07:19:05;-14100.28;;;-145.42;100.00
49367;BME280;35245;52.026;8.540;2022-11-20T07:21:32;-14100.28;;;-145.42;100.00
49367;BME280;35245;52.026;8.540;2022-11-20T07:23:59;-14100.28;;;-145.42;100.00
49367;BME280;35245;52.026;8.540;2022-11-20T07:26:28;-14100.28;;;-145.42;100.00
49367;BME280;35245;52.026;8.540;2022-11-20T07:28:56;-14100.28;;;-145.42;100.00
49367;BME280;35245;52.026;8.540;2022-11-20T07:31:23;-14100.28;;;-145.42;100.00
49367;BME280;35245;52.026;8.540;2022-11-20T07:33:50;-14100.28;;;-145.42;100.00
49367;BME280;35245;52.026;8.540;2022-11-20T07:36:17;-14100.28;;;-145.42;100.00
49367;BME280;35245;52.026;8.540;2022-11-20T07:38:44;-14100.28;;;-145.42;100.00
49367;BME280;35245;52.026;8.540;2022-11-20T07:41:12;-14100.28;;;-145.42;100.00
49367;BME280;35245;52.026;8.540;2022-11-20T07:43:40;-14100.28;;;-145.42;100.00
49367;BME280;35245;52.026;8.540;2022-11-20T07:46:07;-14100.28;;;-145.42;100.00
49367;BME280;35245;52.026;8.540;2022-11-20T07:48:35;-14100.28;;;-145.42;100.00
49367;BME280;35245;52.026;8.540;2022-11-20T07:51:02;-14100.28;;;-145.42;100.00
49367;BME280;35245;52.026;8.540;2022-11-20T07:53:29;-14100.28;;;-145.42;100.00
49367;BME280;35245;52.026;8.540;2022-11-20T07:56:00;-14100.28;;;-145.42;100.00
49367;BME280;35245;52.026;8.540;2022-11-20T07:58:29;-14100.28;;;-145.42;100.00
49367;BME280;35245;52.026;8.540;2022-11-20T08:01:03;-14100.28;;;-145.42;100.00
49367;BME280;35245;52.026;8.540;2022-11-20T08:03:30;-14100.28;;;-145.42;100.00
49367;BME280;35245;52.026;8.540;2022-11-20T08:05:59;-14100.28;;;-145.42;100.00
49367;BME280;35245;52.026;8.540;2022-11-20T08:08:30;-14100.28;;;-145.42;100.00
49367;BME280;35245;52.026;8.540;2022-11-20T08:10:57;-14100.28;;;-145.42;100.00
49367;BME280;35245;52.026;8.540;2022-11-20T08:13:46;-14100.28;;;-145.42;100.00
49367;BME280;35245;52.026;8.540;2022-11-20T08:16:32;-14100.28;;;-145.42;100.00
49367;BME280;35245;52.026;8.540;2022-11-20T08:18:59;-14100.28;;;-145.42;100.00
49367;BME280;35245;52.026;8.540;2022-11-20T08:21:26;-14100.28;;;-145.42;100.00
49367;BME280;35245;52.026;8.540;2022-11-20T08:23:53;-14100.28;;;-145.42;100.00
49367;BME280;35245;52.026;8.540;2022-11-20T08:26:21;-14100.28;;;-145.42;100.00
49367;BME280;35245;52.026;8.540;2022-11-20T08:28:49;-14100.28;;;-145.42;100.00
49367;BME280;35245;52.026;8.540;2022-11-20T08:31:16;-14100.28;;;-145.42;100.00
49367;BME280;35245;52.026;8.540;2022-11-20T08:33:45;-14100.28;;;-145.42;100.00
49367;BME280;35245;52.026;8.540;2022-11-20T08:36:12;-14100.28;;;-145.42;100.00
49367;BME280;35245;52.026;8.540;2022-11-20T08:38:39;-14100.28;;;-145.42;100.00
49367;BME280;35245;52.026;8.540;2022-11-20T08:41:07;-14100.28;;;-145.42;100.00
49367;BME280;35245;52.026;8.540;2022-11-20T08:43:55;-14100.28;;;-145.42;100.00
49367;BME280;35245;52.026;8.540;2022-11-20T08:46:24;-14100.28;;;-145.42;100.00
49367;BME280;35245;52.026;8.540;2022-11-20T08:48:53;-14100.28;;;-145.42;100.00
49367;BME280;35245;52.026;8.540;2022-11-20T08:51:21;-14100.28;;;-145.42;100.00
49367;BME280;35245;52.026;8.540;2022-11-20T08:53:48;-14100.28;;;-145.42;100.00
49367;BME280;35245;52.026;8.540;2022-11-20T08:56:16;-14100.28;;;-145.42;100.00
49367;BME280;35245;52.026;8.540;2022-11-20T08:58:44;-14100.28;;;-145.42;100.00
49367;BME280;35245;52.026;8.540;2022-11-20T09:01:11;-14100.28;;;-145.42;100.00
49367;BME280;35245;52.026;8.540;2022-11-20T09:03:38;-14100.28;;;-145.42;100.00
49367;BME280;35245;52.026;8.540;2022-11-20T09:06:07;-14100.28;;;-145.42;100.00
49367;BME280;35245;52.026;8.540;2022-11-20T09:08:35;-14100.28;;;-145.42;100.00
49367;BME280;35245;52.026;8.540;2022-11-20T09:11:03;-14100.28;;;-145.42;100.00
49367;BME280;35245;52.026;8.540;2022-11-20T09:13:33;-14100.28;;;-145.42;100.00
49367;BME280;35245;52.026;8.540;2022-11-20T09:16:03;-14100.28;;;-145.42;100.00
49367;BME280;35245;52.026;8.540;2022-11-20T09:18:31;-14100.28;;;-145.42;100.00
49367;BME280;35245;52.026;8.540;2022-11-20T09:21:01;-14100.28;;;-145.42;100.00
49367;BME280;35245;52.026;8.540;2022-11-20T09:23:34;-14100.28;;;-145.42;100.00
49367;BME280;35245;52.026;8.540;2022-11-20T09:26:03;-14100.28;;;-145.42;100.00
49367;BME280;35245;52.026;8.540;2022-11-20T09:28:30;-14100.28;;;-145.42;100.00
49367;BME280;35245;52.026;8.540;2022-11-20T09:30:58;-14100.28;;;-145.42;100.00
49367;BME280;35245;52.026;8.540;2022-11-20T09:33:25;-14100.28;;;-145.42;100.00
49367;BME280;35245;52.026;8.540;2022-11-20T09:35:52;-14100.28;;;-145.42;100.00
49367;BME280;35245;52.026;8.540;2022-11-20T09:38:19;-14100.28;;;-145.42;100.00
49367;BME280;35245;52.026;8.540;2022-11-20T09:40:56;-14100.28;;;-145.42;100.00
49367;BME280;35245;52.026;8.540;2022-11-20T09:43:32;-14100.28;;;-145.42;100.00
49367;BME280;35245;52.026;8.540;2022-11-20T09:46:11;-14100.28;;;-145.42;100.00
49367;BME280;35245;52.026;8.540;2022-11-20T09:49:16;-14100.28;;;-145.42;100.00
49367;BME280;35245;52.026;8.540;2022-11-20T09:51:53;-14100.28;;;-145.42;100.00
49367;BME280;35245;52.026;8.540;2022-11-20T09:54:29;-14100.28;;;-145.42;100.00
49367;BME280;35245;52.026;8.540;2022-11-20T09:57:00;-14100.28;;;-145.42;100.00
49367;BME280;35245;52.026;8.540;2022-11-20T09:59:36;-14100.28;;;-145.42;100.00
49367;BME280;35245;52.026;8.540;2022-11-20T10:02:25;-14100.28;;;-145.42;100.00
49367;BME280;35245;52.026;8.540;2022-11-20T10:05:01;-14100.28;;;-145.42;100.00
49367;BME280;35245;52.026;8.540;2022-11-20T10:07:34;-14100.28;;;-145.42;100.00
49367;BME280;35245;52.026;8.540;2022-11-20T10:10:05;-14100.28;;;-145.42;100.00
49367;BME280;35245;52.026;8.540;2022-11-20T10:12:58;-14100.28;;;-145.42;100.00
49367;BME280;35245;52.026;8.540;2022-11-20T10:15:36;-14100.28;;;-145.42;100.00
49367;BME280;35245;52.026;8.540;2022-11-20T10:18:22;-14100.28;;;-145.42;100.00
49367;BME280;35245;52.026;8.540;2022-11-20T10:20:57;-14100.28;;;-145.42;100.00
49367;BME280;35245;52.026;8.540;2022-11-20T10:23:57;-14100.28;;;-145.42;100.00
49367;BME280;35245;52.026;8.540;2022-11-20T10:26:40;-14100.28;;;-145.42;100.00
49367;BME280;35245;52.026;8.540;2022-11-20T10:29:14;-14100.28;;;-145.42;100.00
49367;BME280;35245;52.026;8.540;2022-11-20T10:31:45;-14100.28;;;-145.42;100.00
49367;BME280;35245;52.026;8.540;2022-11-20T10:34:21;-14100.28;;;-145.42;100.00
49367;BME280;35245;52.026;8.540;2022-11-20T10:36:55;-14100.28;;;-145.42;100.00
49367;BME280;35245;52.026;8.540;2022-11-20T10:39:32;-14100.28;;;-145.42;100.00
49367;BME280;35245;52.026;8.540;2022-11-20T10:42:02;-14100.28;;;-145.42;100.00
49367;BME280;35245;52.026;8.540;2022-11-20T10:44:34;-14100.28;;;-145.42;100.00
49367;BME280;35245;52.026;8.540;2022-11-20T10:47:20;-14100.28;;;-145.42;100.00
49367;BME280;35245;52.026;8.540;2022-11-20T10:49:50;-14100.28;;;-145.42;100.00
49367;BME280;35245;52.026;8.540;2022-11-20T10:52:27;-14100.28;;;-145.42;100.00
49367;BME280;35245;52.026;8.540;2022-11-20T10:55:05;-14100.28;;;-145.42;100.00
49367;BME280;35245;52.026;8.540;2022-11-20T10:57:52;-14100.28;;;-145.42;100.00
49367;BME280;35245;52.026;8.540;2022-11-20T11:00:23;-14100.28;;;-145.42;100.00
49367;BME280;35245;52.026;8.540;2022-11-20T11:02:52;-14100.28;;;-145.42;100.00
49367;BME280;35245;52.026;8.540;2022-11-20T11:05:37;-14100.28;;;-145.42;100.00
49367;BME280;35245;52.026;8.540;2022-11-20T11:08:12;-14100.28;;;-145.42;100.00
49367;BME280;35245;52.026;8.540;2022-11-20T11:10:46;-14100.28;;;-145.42;100.00
49367;BME280;35245;52.026;8.540;2022-11-20T11:13:22;-14100.28;;;-145.42;100.00
49367;BME280;35245;52.026;8.540;2022-11-20T11:15:51;-14100.28;;;-145.42;100.00
49367;BME280;35245;52.026;8.540;2022-11-20T11:18:24;-14100.28;;;-145.42;100.00
49367;BME280;35245;52.026;8.540;2022-11-20T11:20:53;-14100.28;;;-145.42;100.00
49367;BME280;35245;52.026;8.540;2022-11-20T11:23:34;-14100.28;;;-145.42;100.00
49367;BME280;35245;52.026;8.540;2022-11-20T11:26:04;-14100.28;;;-145.42;100.00
49367;BME280;35245;52.026;8.540;2022-11-20T11:28:33;-12601.47;;;-145.42;100.00
49367;BME280;35245;52.026;8.540;2022-11-20T11:31:03;-4105.41;;;-145.42;100.00
49367;BME280;35245;52.026;8.540;2022-11-20T11:33:31;2654.88;;;-145.42;100.00
49367;BME280;35245;52.026;8.540;2022-11-20T11:36:02;11435.88;;;-145.42;100.00
49367;BME280;35245;52.026;8.540;2022-11-20T11:38:36;28553.06;;;-145.42;96.38
49367;BME280;35245;52.026;8.540;2022-11-20T11:41:06;32339.06;;;-145.42;93.41
49367;BME280;35245;52.026;8.540;2022-11-20T11:43:36;42478.63;;;-145.42;87.56
49367;BME280;35245;52.026;8.540;2022-11-20T11:46:32;43625.97;;;-145.42;85.86
49367;BME280;35245;52.026;8.540;2022-11-20T11:49:10;48107.84;;;-145.42;79.38
49367;BME280;35245;52.026;8.540;2022-11-20T11:52:00;51423.03;;;-145.42;70.29
49367;BME280;35245;52.026;8.540;2022-11-20T11:54:35;51367.53;;;-145.42;69.96
49367;BME280;35245;52.026;8.540;2022-11-20T11:57:12;51912.72;;;-145.42;63.91
49367;BME280;35245;52.026;8.540;2022-11-20T11:59:53;52348.91;;;-145.42;57.52
49367;BME280;35245;52.026;8.540;2022-11-20T12:02:34;52668.16;;;-145.42;51.12
49367;BME280;35245;52.026;8.540;2022-11-20T12:05:13;52618.59;;;-145.42;53.07
49367;BME280;35245;52.026;8.540;2022-11-20T12:07:47;52582.91;;;-145.42;51.55
49367;BME280;35245;52.026;8.540;2022-11-20T12:10:21;52743.53;;;-145.42;51.12
49367;BME280;35245;52.026;8.540;2022-11-20T12:12:54;52795.09;;;-145.42;64.19
49367;BME280;35245;52.026;8.540;2022-11-20T12:15:28;49819.59;;;-145.42;83.73
49367;BME280;35245;52.026;8.540;2022-11-20T12:17:58;49379.69;;;-145.42;85.25
49367;BME280;35245;52.026;8.540;2022-11-20T12:20:32;47377.03;;;-145.42;88.10
49367;BME280;35245;52.026;8.540;2022-11-20T12:23:08;48723.91;;;-145.42;85.20
49367;BME280;35245;52.026;8.540;2022-11-20T12:25:43;48755.59;;;-145.42;82.81
49367;BME280;35245;52.026;8.540;2022-11-20T12:28:29;51639.13;;;-145.42;72.57
49367;BME280;35245;52.026;8.540;2022-11-20T12:31:24;52325.13;;;-145.42;59.65
49367;BME280;35245;52.026;8.540;2022-11-20T12:34:13;52426.25;;;-145.42;58.45
49367;BME280;35245;52.026;8.540;2022-11-20T12:36:51;52529.38;;;-145.42;59.67
49367;BME280;35245;52.026;8.540;2022-11-20T12:39:42;52311.25;;;-145.42;65.55
49367;BME280;35245;52.026;8.540;2022-11-20T12:46:08;51008.72;;;-145.42;82.48